Wichita, KS (67209)

10:39 PM CDT on July 04, 2015 (GMT -0500)
Near the airport | | Change Station
CLOSE
Current Station
Personal Weather Station
Location: Wichita, KS
Elevation: 1348 ft
Nearby Weather Stations

Elev 1348 ft 37.65 °N, 97.44 °W | Updated 9 seconds ago

Partly Cloudy
Partly Cloudy
78.1 °F
Feels Like 80 °F
N
5.0
Wind Variable Wind from SSE
Gusts 5.0 mph

Today
High -- | Low -- °F
--% Chance of Precip.
Yesterday
High -- | Low -- °F
Precip. -- in
6:13 AM 8:54 PM
Waning Gibbous, 88% visible
Pressure 29.87 in
Visibility 8.0 miles
Clouds Few 10000 ft
Heat Index 80 °F
Dew Point 66 °F
Humidity 67%
Rainfall 0.00 in
Snow Depth Not available.
UV 0 out of 12
Pollen 4.10 out of 12
Air Quality Not available.
Flu Activity Not available.
METAR KICT 050253Z 15006KT 8SM FEW100 27/18 A2991 RMK AO2 SLP114 T02720183 53006

More Conditions Fewer Conditions

Pressure 29.87 in
Visibility 8.0 miles
Clouds Few 10000 ft
Heat Index 80 °F
Dew Point 66 °F
Humidity 67%
Rainfall 0.00 in
Snow Depth Not available.
UV 0 out of 12
Pollen 4.10 out of 12
Air Quality Not available.
Flu Activity Not available.
METAR KICT 050253Z 15006KT 8SM FEW100 27/18 A2991 RMK AO2 SLP114 T02720183 53006

More Conditions Fewer Conditions

10-Day Weather Forecast

×

Almanac

Astronomy

Jul. 04, 2015 Rise Set
Actual Time
Civil Twilight
Nautical Twilight
Astronomical Twilight
Moon
Length of Visible Light
Length of Day
Tomorrow will be .
, % of the Moon is Illuminated

Today's Extremes

State Highs State Lows

Community

WunderPhotos

Upload Photos

1,835,182 photos uploaded!

WunderBlogs® & News

Nearby

Air Quality

  Air Quality AQ Index Pollutant
Not available.

Snow Depth

Station Depth Elevation

Earthquake Activity

City Distance Mag. Time & Date
Minimum magnitude displayed is 2.5.

Coastal Water Temperatures

Place Temperature

Stations

Nearby Weather Stations

Station Location Temp. Windchill Dew Point Humidity Wind Precip. Elev Updated Type